createdAt,value
2018-03-18T00:01:37.719Z,9.43
2018-03-18T00:04:07.163Z,9.50
2018-03-18T00:06:36.199Z,9.54
2018-03-18T00:09:04.983Z,9.45
2018-03-18T00:11:33.557Z,9.44
2018-03-18T00:14:03.015Z,9.41
2018-03-18T00:16:31.509Z,9.18
2018-03-18T00:19:00.891Z,9.06
2018-03-18T00:21:29.470Z,9.18
2018-03-18T00:23:58.072Z,9.20
2018-03-18T00:26:26.681Z,9.18
2018-03-18T00:28:55.365Z,9.04
2018-03-18T00:31:23.980Z,9.08
2018-03-18T00:33:52.533Z,8.93
2018-03-18T00:36:21.444Z,9.03
2018-03-18T00:38:50.626Z,9.04
2018-03-18T00:41:19.755Z,8.93
2018-03-18T00:43:48.608Z,8.82
2018-03-18T00:46:17.933Z,8.89
2018-03-18T00:48:47.329Z,8.81
2018-03-18T00:54:26.111Z,9.05
2018-03-18T00:56:54.790Z,9.18
2018-03-18T00:59:23.591Z,9.30
2018-03-18T01:01:52.998Z,9.26
2018-03-18T01:04:22.491Z,9.33
2018-03-18T01:06:51.467Z,9.33
2018-03-18T01:09:20.915Z,9.48
2018-03-18T01:11:49.638Z,9.51
2018-03-18T01:14:18.217Z,9.52
2018-03-18T01:16:47.707Z,9.56
2018-03-18T01:19:16.432Z,9.57
2018-03-18T01:21:45.918Z,9.56
2018-03-18T01:24:14.516Z,9.45
2018-03-18T01:26:44.742Z,9.53
2018-03-18T01:29:13.403Z,9.44
2018-03-18T01:31:42.188Z,9.42
2018-03-18T01:34:11.052Z,9.27
2018-03-18T01:36:40.040Z,9.09
2018-03-18T01:39:09.987Z,8.95
2018-03-18T01:41:39.351Z,8.91
2018-03-18T01:44:07.940Z,8.99
2018-03-18T01:46:36.533Z,9.08
2018-03-18T01:49:05.213Z,9.20
2018-03-18T01:51:34.600Z,9.20
2018-03-18T01:54:03.262Z,9.28
2018-03-18T01:56:31.886Z,9.32
2018-03-18T01:59:00.636Z,9.27
2018-03-18T02:01:29.328Z,9.21
2018-03-18T02:03:58.693Z,9.19
2018-03-18T02:06:28.575Z,9.08
2018-03-18T02:08:57.291Z,9.16
2018-03-18T02:11:25.886Z,9.02
2018-03-18T02:13:54.656Z,8.90
2018-03-18T02:16:24.087Z,8.83
2018-03-18T02:18:52.665Z,8.81
2018-03-18T02:21:21.311Z,8.81
2018-03-18T02:23:50.046Z,8.91
2018-03-18T02:26:18.693Z,9.03
2018-03-18T02:28:47.305Z,9.04
2018-03-18T02:31:16.010Z,9.01
2018-03-18T02:33:45.801Z,9.05
2018-03-18T02:36:16.036Z,9.07
2018-03-18T02:38:44.940Z,9.02
2018-03-18T02:41:13.526Z,9.07
2018-03-18T02:43:42.044Z,9.03
2018-03-18T02:46:10.819Z,8.95
2018-03-18T02:48:40.160Z,8.98
2018-03-18T02:51:08.807Z,8.98
2018-03-18T02:53:37.364Z,9.06
2018-03-18T02:56:05.938Z,9.15
2018-03-18T02:58:34.617Z,9.09
2018-03-18T03:01:03.520Z,9.18
2018-03-18T03:03:32.199Z,9.21
2018-03-18T03:06:01.718Z,9.02
2018-03-18T03:08:30.700Z,8.98
2018-03-18T03:10:59.616Z,9.06
2018-03-18T03:13:28.328Z,9.07
2018-03-18T03:15:56.987Z,9.10
2018-03-18T03:18:25.596Z,9.18
2018-03-18T03:20:54.254Z,9.17
2018-03-18T03:23:23.643Z,9.18
2018-03-18T03:25:52.378Z,9.11
2018-03-18T03:28:21.816Z,9.11
2018-03-18T03:30:51.307Z,9.10
2018-03-18T03:33:19.993Z,9.04
2018-03-18T03:35:49.286Z,9.01
2018-03-18T03:38:18.764Z,8.93
2018-03-18T03:40:47.936Z,8.84
2018-03-18T03:43:16.591Z,8.79
2018-03-18T03:45:46.078Z,8.71
2018-03-18T03:48:15.140Z,8.59
2018-03-18T03:50:43.732Z,8.54
2018-03-18T03:53:12.472Z,8.46
2018-03-18T03:55:41.783Z,8.54
2018-03-18T03:58:10.583Z,8.54
2018-03-18T04:00:39.478Z,8.57
2018-03-18T04:03:08.385Z,8.57
2018-03-18T04:05:37.161Z,8.61
2018-03-18T04:08:07.016Z,8.63
2018-03-18T04:10:36.280Z,8.66
2018-03-18T04:13:05.879Z,8.73
2018-03-18T04:15:34.576Z,8.82
2018-03-18T04:18:03.343Z,8.76
2018-03-18T04:20:32.061Z,8.82
2018-03-18T04:23:00.839Z,8.82
2018-03-18T04:25:30.230Z,8.87
2018-03-18T04:27:58.876Z,8.85
2018-03-18T04:30:28.397Z,8.83
2018-03-18T04:32:57.890Z,8.77
2018-03-18T04:35:26.501Z,8.72
2018-03-18T04:37:55.967Z,8.68
2018-03-18T04:40:25.651Z,8.77
2018-03-18T04:42:54.256Z,8.75
2018-03-18T04:45:22.848Z,8.77
2018-03-18T04:47:51.467Z,8.81
2018-03-18T04:50:20.080Z,8.89
2018-03-18T04:52:48.720Z,8.86
2018-03-18T04:55:18.162Z,8.85
2018-03-18T04:57:46.914Z,8.90
2018-03-18T05:00:15.629Z,8.88
2018-03-18T05:02:44.316Z,8.86
2018-03-18T05:05:12.925Z,8.94
2018-03-18T05:07:41.548Z,8.89
2018-03-18T05:10:11.125Z,8.91
2018-03-18T05:12:40.193Z,8.97
2018-03-18T05:15:08.849Z,8.96
2018-03-18T05:17:37.542Z,8.95
2018-03-18T05:20:06.842Z,9.04
2018-03-18T05:22:36.326Z,9.06
2018-03-18T05:25:04.985Z,9.05
2018-03-18T05:27:34.380Z,9.04
2018-03-18T05:30:03.075Z,9.08
2018-03-18T05:32:32.729Z,9.05
2018-03-18T05:35:01.398Z,9.08
2018-03-18T05:37:30.207Z,9.04
2018-03-18T05:39:58.938Z,9.07
2018-03-18T05:42:27.888Z,9.03
2018-03-18T05:45:23.045Z,9.00
2018-03-18T05:47:51.993Z,9.08
2018-03-18T05:50:21.920Z,9.08
2018-03-18T05:52:50.956Z,9.10
2018-03-18T05:55:19.801Z,8.96
2018-03-18T05:57:48.459Z,9.01
2018-03-18T06:00:17.795Z,9.02
2018-03-18T06:02:46.389Z,8.97
2018-03-18T06:05:15.821Z,8.95
2018-03-18T06:07:44.444Z,8.87
2018-03-18T06:10:13.226Z,8.67
2018-03-18T06:12:42.612Z,8.53
2018-03-18T06:15:11.330Z,8.50
2018-03-18T06:17:40.044Z,8.37
2018-03-18T06:20:08.925Z,8.40
2018-03-18T06:22:38.091Z,8.40
2018-03-18T06:25:07.817Z,8.39
2018-03-18T06:27:37.309Z,8.30
2018-03-18T06:30:05.963Z,8.27
2018-03-18T06:32:34.528Z,8.24
2018-03-18T06:35:03.221Z,8.25
2018-03-18T06:37:31.909Z,8.25
2018-03-18T06:40:00.576Z,8.29
2018-03-18T06:42:30.043Z,8.41
2018-03-18T06:44:58.785Z,8.59
2018-03-18T06:47:27.505Z,8.68
2018-03-18T06:49:56.358Z,8.86
2018-03-18T06:52:25.264Z,9.04
2018-03-18T06:54:54.755Z,9.13
2018-03-18T06:57:24.106Z,9.19
2018-03-18T06:59:52.767Z,9.12
2018-03-18T07:02:21.366Z,9.01
2018-03-18T07:04:49.990Z,8.90
2018-03-18T07:07:18.784Z,8.87
2018-03-18T07:09:47.672Z,8.76
2018-03-18T07:12:16.386Z,8.45
2018-03-18T07:14:45.199Z,8.26
2018-03-18T07:17:13.822Z,8.16
2018-03-18T07:19:43.959Z,8.05
2018-03-18T07:22:12.744Z,8.04
2018-03-18T07:24:41.984Z,8.15
2018-03-18T07:27:11.013Z,8.02
2018-03-18T07:29:39.685Z,8.03
2018-03-18T07:32:08.328Z,7.99
2018-03-18T07:34:37.788Z,7.95
2018-03-18T07:37:06.459Z,7.96
2018-03-18T07:39:35.129Z,7.85
2018-03-18T07:42:05.094Z,7.76
2018-03-18T07:44:34.560Z,7.69
2018-03-18T07:47:04.901Z,7.62
2018-03-18T07:49:34.413Z,7.40
2018-03-18T07:52:04.429Z,7.21
2018-03-18T07:54:33.910Z,7.16
2018-03-18T07:57:02.506Z,7.14
2018-03-18T07:59:32.106Z,7.11
2018-03-18T08:02:01.557Z,7.13
2018-03-18T08:04:30.253Z,7.06
2018-03-18T08:06:59.758Z,7.03
2018-03-18T08:09:29.470Z,7.08
2018-03-18T08:11:58.288Z,7.12
2018-03-18T08:14:26.951Z,7.16
2018-03-18T08:16:55.794Z,7.17
2018-03-18T08:19:24.690Z,7.19
2018-03-18T08:21:54.369Z,7.22
2018-03-18T08:24:24.018Z,7.33
2018-03-18T08:26:52.745Z,7.41
2018-03-18T08:29:21.463Z,7.49
2018-03-18T08:31:50.304Z,7.56
2018-03-18T08:34:18.934Z,7.47
2018-03-18T08:36:47.673Z,7.47
2018-03-18T08:39:16.392Z,7.43
2018-03-18T08:41:45.087Z,7.44
2018-03-18T08:44:13.880Z,7.42
2018-03-18T08:46:42.562Z,7.45
2018-03-18T08:49:12.067Z,7.46
2018-03-18T08:51:41.054Z,7.47
2018-03-18T08:54:10.799Z,7.47
2018-03-18T08:56:40.310Z,7.49
2018-03-18T08:59:09.025Z,7.44
2018-03-18T09:01:37.568Z,7.40
2018-03-18T09:04:06.313Z,7.39
2018-03-18T09:06:35.031Z,7.35
2018-03-18T09:09:03.765Z,7.37
2018-03-18T09:11:32.475Z,7.32
2018-03-18T09:14:01.707Z,7.28
2018-03-18T09:16:30.446Z,7.29
2018-03-18T09:18:59.943Z,7.34
2018-03-18T09:21:29.142Z,7.61
2018-03-18T09:23:58.144Z,7.72
2018-03-18T09:26:27.577Z,7.59
2018-03-18T09:28:57.161Z,7.55
2018-03-18T09:31:25.934Z,7.46
2018-03-18T09:33:54.614Z,7.49
2018-03-18T09:36:23.406Z,7.59
2018-03-18T09:38:52.468Z,7.52
2018-03-18T09:41:21.465Z,7.36
2018-03-18T09:43:50.199Z,7.18
2018-03-18T09:46:18.998Z,7.12
2018-03-18T09:48:47.873Z,6.99
2018-03-18T09:51:16.642Z,6.96
2018-03-18T09:53:46.423Z,7.02
2018-03-18T09:56:16.064Z,6.96
2018-03-18T09:58:45.724Z,6.90
2018-03-18T10:01:14.457Z,6.81
2018-03-18T10:03:43.766Z,6.75
2018-03-18T10:06:13.227Z,6.66
2018-03-18T10:08:41.982Z,6.66
2018-03-18T10:11:10.622Z,6.70
2018-03-18T10:13:39.251Z,6.66
2018-03-18T10:16:07.800Z,6.62
2018-03-18T10:18:36.374Z,6.54
2018-03-18T10:21:04.939Z,6.60
2018-03-18T10:23:33.844Z,6.57
2018-03-18T10:26:04.069Z,6.56
2018-03-18T10:28:34.691Z,6.57
2018-03-18T10:31:03.587Z,6.55
2018-03-18T10:33:32.598Z,6.59
2018-03-18T10:36:02.197Z,6.62
2018-03-18T10:38:32.921Z,6.62
2018-03-18T10:41:16.301Z,6.67
2018-03-18T10:43:46.784Z,6.64
2018-03-18T10:46:16.739Z,6.61
2018-03-18T10:48:47.615Z,6.59
2018-03-18T10:51:17.366Z,6.62
2018-03-18T10:53:46.957Z,6.61
2018-03-18T10:56:16.431Z,6.64
2018-03-18T10:58:49.165Z,6.59
2018-03-18T11:04:32.956Z,6.64
2018-03-18T11:07:01.927Z,6.68
2018-03-18T11:09:31.119Z,6.73
2018-03-18T11:11:59.930Z,6.76
2018-03-18T11:14:29.034Z,6.80
2018-03-18T11:17:02.386Z,6.79
2018-03-18T11:19:31.307Z,6.83
2018-03-18T11:22:00.098Z,7.02
2018-03-18T11:24:29.849Z,7.12
2018-03-18T11:27:00.405Z,7.23
2018-03-18T11:29:30.213Z,7.63
2018-03-18T11:31:58.980Z,7.81
2018-03-18T11:34:27.798Z,7.73
2018-03-18T11:36:56.499Z,7.67
2018-03-18T11:39:26.553Z,7.81
2018-03-18T11:41:55.777Z,7.76
2018-03-18T11:44:24.633Z,7.66
2018-03-18T11:46:53.589Z,7.58
2018-03-18T11:49:23.667Z,7.47
2018-03-18T11:51:53.906Z,7.39
2018-03-18T11:54:24.845Z,7.31
2018-03-18T11:56:55.008Z,7.25
2018-03-18T11:59:25.609Z,7.26
2018-03-18T12:01:54.635Z,7.25
2018-03-18T12:04:23.837Z,7.26
2018-03-18T12:06:54.189Z,7.28
2018-03-18T12:09:23.011Z,7.29
2018-03-18T12:11:52.168Z,7.27
2018-03-18T12:14:21.989Z,7.33
2018-03-18T12:16:52.753Z,7.44
2018-03-18T12:19:24.429Z,7.60
2018-03-18T12:21:54.744Z,7.72
2018-03-18T12:24:23.521Z,7.84
2018-03-18T12:26:52.551Z,7.97
2018-03-18T12:29:21.274Z,8.00
2018-03-18T12:31:49.995Z,8.14
2018-03-18T12:34:18.908Z,8.40
2018-03-18T12:36:48.896Z,7.65
2018-03-18T12:39:17.862Z,7.75
2018-03-18T12:41:46.551Z,7.81
2018-03-18T12:44:16.372Z,7.79
2018-03-18T12:46:46.372Z,8.01
2018-03-18T12:49:15.650Z,8.13
2018-03-18T12:51:44.530Z,8.05
2018-03-18T12:54:14.076Z,8.17
2018-03-18T12:56:43.011Z,8.09
2018-03-18T12:59:13.179Z,7.84
2018-03-18T13:01:52.445Z,7.84
2018-03-18T13:04:21.061Z,7.86
2018-03-18T13:06:50.811Z,7.83
2018-03-18T13:09:20.029Z,7.79
2018-03-18T13:11:49.008Z,7.83
2018-03-18T13:14:31.674Z,7.91
2018-03-18T13:17:05.027Z,7.93
2018-03-18T13:19:38.553Z,7.81
2018-03-18T13:22:14.821Z,7.80
2018-03-18T13:25:41.074Z,7.83
2018-03-18T13:32:04.555Z,7.89
2018-03-18T13:34:37.652Z,8.09
2018-03-18T13:37:21.885Z,8.33
2018-03-18T13:39:55.215Z,8.76
2018-03-18T13:42:38.950Z,9.13
2018-03-18T13:45:07.882Z,9.09
2018-03-18T13:47:36.852Z,9.04
2018-03-18T13:50:08.034Z,9.04
2018-03-18T13:53:17.411Z,8.96
2018-03-18T13:55:54.969Z,8.90
2018-03-18T13:58:43.243Z,8.82
2018-03-18T14:01:18.043Z,8.68
2018-03-18T14:03:50.331Z,8.69
2018-03-18T14:06:23.940Z,8.70
2018-03-18T14:09:06.887Z,8.78
2018-03-18T14:11:43.691Z,8.96
2018-03-18T14:14:13.735Z,9.11
2018-03-18T14:16:42.517Z,9.42
2018-03-18T14:24:15.948Z,10.27
2018-03-18T14:26:45.702Z,10.42
2018-03-18T14:29:15.155Z,10.48
2018-03-18T14:31:43.898Z,10.63
2018-03-18T14:34:12.785Z,10.65
2018-03-18T14:36:41.667Z,10.84
2018-03-18T14:39:11.207Z,10.93
2018-03-18T14:41:40.006Z,11.06
2018-03-18T14:44:08.963Z,11.13
2018-03-18T14:46:37.635Z,11.16
2018-03-18T14:49:06.389Z,10.89
